sensor_id;sensor_type;location;lat;lon;timestamp;temperature;humidity
33903;DHT22;20194;50.950;5.346;2022-07-29T00:01:50;20.70;1.00
33903;DHT22;20194;50.950;5.346;2022-07-29T00:04:18;20.80;1.00
33903;DHT22;20194;50.950;5.346;2022-07-29T00:06:43;20.80;1.00
33903;DHT22;20194;50.950;5.346;2022-07-29T00:09:09;20.70;1.00
33903;DHT22;20194;50.950;5.346;2022-07-29T00:11:34;20.70;1.00
33903;DHT22;20194;50.950;5.346;2022-07-29T00:14:01;20.70;1.00
33903;DHT22;20194;50.950;5.346;2022-07-29T00:16:26;20.70;1.00
33903;DHT22;20194;50.950;5.346;2022-07-29T00:18:52;20.80;1.00
33903;DHT22;20194;50.950;5.346;2022-07-29T00:21:18;20.60;1.00
33903;DHT22;20194;50.950;5.346;2022-07-29T00:23:43;20.70;1.00
33903;DHT22;20194;50.950;5.346;2022-07-29T00:26:09;20.70;1.00
33903;DHT22;20194;50.950;5.346;2022-07-29T00:28:35;20.80;1.00
33903;DHT22;20194;50.950;5.346;2022-07-29T00:31:00;20.80;1.00
33903;DHT22;20194;50.950;5.346;2022-07-29T00:33:26;20.80;1.00
33903;DHT22;20194;50.950;5.346;2022-07-29T00:35:52;20.70;1.00
33903;DHT22;20194;50.950;5.346;2022-07-29T00:38:19;20.70;1.00
33903;DHT22;20194;50.950;5.346;2022-07-29T00:40:47;20.70;1.00
33903;DHT22;20194;50.950;5.346;2022-07-29T00:43:13;20.60;1.00
33903;DHT22;20194;50.950;5.346;2022-07-29T00:45:39;20.50;1.00
33903;DHT22;20194;50.950;5.346;2022-07-29T00:48:06;20.50;1.00
33903;DHT22;20194;50.950;5.346;2022-07-29T00:50:34;20.60;1.00
33903;DHT22;20194;50.950;5.346;2022-07-29T00:53:00;20.50;1.00
33903;DHT22;20194;50.950;5.346;2022-07-29T00:55:27;20.40;1.00
33903;DHT22;20194;50.950;5.346;2022-07-29T00:57:53;20.20;1.00
33903;DHT22;20194;50.950;5.346;2022-07-29T01:00:24;20.10;1.00
33903;DHT22;20194;50.950;5.346;2022-07-29T01:02:50;20.10;1.00
33903;DHT22;20194;50.950;5.346;2022-07-29T01:05:23;20.20;1.00
33903;DHT22;20194;50.950;5.346;2022-07-29T01:07:51;20.20;1.00
33903;DHT22;20194;50.950;5.346;2022-07-29T01:10:18;20.30;1.00
33903;DHT22;20194;50.950;5.346;2022-07-29T01:12:47;20.20;1.00
33903;DHT22;20194;50.950;5.346;2022-07-29T01:15:13;19.90;1.00
33903;DHT22;20194;50.950;5.346;2022-07-29T01:17:47;19.90;1.00
33903;DHT22;20194;50.950;5.346;2022-07-29T01:29:15;19.70;1.00
33903;DHT22;20194;50.950;5.346;2022-07-29T01:31:45;19.70;1.00
33903;DHT22;20194;50.950;5.346;2022-07-29T01:34:22;19.60;1.00
33903;DHT22;20194;50.950;5.346;2022-07-29T01:36:55;19.80;1.00
33903;DHT22;20194;50.950;5.346;2022-07-29T01:39:32;19.60;1.00
33903;DHT22;20194;50.950;5.346;2022-07-29T01:44:56;19.40;1.00
33903;DHT22;20194;50.950;5.346;2022-07-29T01:50:10;19.30;1.00
33903;DHT22;20194;50.950;5.346;2022-07-29T01:52:42;19.50;1.00
33903;DHT22;20194;50.950;5.346;2022-07-29T01:55:14;19.60;1.00
33903;DHT22;20194;50.950;5.346;2022-07-29T01:57:43;19.60;1.00
33903;DHT22;20194;50.950;5.346;2022-07-29T02:00:10;19.40;1.00
33903;DHT22;20194;50.950;5.346;2022-07-29T02:02:39;19.40;1.00
33903;DHT22;20194;50.950;5.346;2022-07-29T02:05:07;19.50;1.00
33903;DHT22;20194;50.950;5.346;2022-07-29T02:07:36;19.50;1.00
33903;DHT22;20194;50.950;5.346;2022-07-29T02:10:05;19.50;1.00
33903;DHT22;20194;50.950;5.346;2022-07-29T02:12:32;19.30;1.00
33903;DHT22;20194;50.950;5.346;2022-07-29T02:15:01;19.20;1.00
33903;DHT22;20194;50.950;5.346;2022-07-29T02:17:33;19.10;1.00
33903;DHT22;20194;50.950;5.346;2022-07-29T02:20:00;18.90;1.00
33903;DHT22;20194;50.950;5.346;2022-07-29T02:22:30;18.60;1.00
33903;DHT22;20194;50.950;5.346;2022-07-29T02:24:57;18.60;1.00
33903;DHT22;20194;50.950;5.346;2022-07-29T02:27:24;18.60;1.00
33903;DHT22;20194;50.950;5.346;2022-07-29T02:29:53;18.70;1.00
33903;DHT22;20194;50.950;5.346;2022-07-29T02:32:21;18.90;1.00
33903;DHT22;20194;50.950;5.346;2022-07-29T02:34:49;18.80;1.00
33903;DHT22;20194;50.950;5.346;2022-07-29T02:37:16;18.70;1.00
33903;DHT22;20194;50.950;5.346;2022-07-29T02:39:43;18.70;1.00
33903;DHT22;20194;50.950;5.346;2022-07-29T02:42:13;18.60;1.00
33903;DHT22;20194;50.950;5.346;2022-07-29T02:44:40;18.50;1.00
33903;DHT22;20194;50.950;5.346;2022-07-29T02:49:38;18.70;1.00
33903;DHT22;20194;50.950;5.346;2022-07-29T02:52:14;18.90;1.00
33903;DHT22;20194;50.950;5.346;2022-07-29T02:55:05;18.80;1.00
33903;DHT22;20194;50.950;5.346;2022-07-29T02:57:37;18.90;1.00
33903;DHT22;20194;50.950;5.346;2022-07-29T03:00:07;18.90;1.00
33903;DHT22;20194;50.950;5.346;2022-07-29T03:02:36;19.10;1.00
33903;DHT22;20194;50.950;5.346;2022-07-29T03:05:04;19.30;1.00
33903;DHT22;20194;50.950;5.346;2022-07-29T03:07:33;19.50;1.00
33903;DHT22;20194;50.950;5.346;2022-07-29T03:09:59;19.60;1.00
33903;DHT22;20194;50.950;5.346;2022-07-29T03:12:27;19.70;1.00
33903;DHT22;20194;50.950;5.346;2022-07-29T03:14:54;19.60;1.00
33903;DHT22;20194;50.950;5.346;2022-07-29T03:17:21;19.50;1.00
33903;DHT22;20194;50.950;5.346;2022-07-29T03:19:47;19.40;1.00
33903;DHT22;20194;50.950;5.346;2022-07-29T03:22:14;19.40;1.00
33903;DHT22;20194;50.950;5.346;2022-07-29T03:24:40;19.50;1.00
33903;DHT22;20194;50.950;5.346;2022-07-29T03:27:06;19.30;1.00
33903;DHT22;20194;50.950;5.346;2022-07-29T03:29:32;19.10;1.00
33903;DHT22;20194;50.950;5.346;2022-07-29T03:31:58;19.10;1.00
33903;DHT22;20194;50.950;5.346;2022-07-29T03:34:24;19.10;1.00
33903;DHT22;20194;50.950;5.346;2022-07-29T03:36:50;19.10;1.00
33903;DHT22;20194;50.950;5.346;2022-07-29T03:39:20;18.80;1.00
33903;DHT22;20194;50.950;5.346;2022-07-29T03:41:48;18.50;1.00
33903;DHT22;20194;50.950;5.346;2022-07-29T03:44:16;18.70;1.00
33903;DHT22;20194;50.950;5.346;2022-07-29T03:46:44;18.90;1.00
33903;DHT22;20194;50.950;5.346;2022-07-29T03:49:11;19.10;1.00
33903;DHT22;20194;50.950;5.346;2022-07-29T03:51:39;19.20;1.00
33903;DHT22;20194;50.950;5.346;2022-07-29T03:54:05;19.30;1.00
33903;DHT22;20194;50.950;5.346;2022-07-29T03:56:34;19.40;1.00
33903;DHT22;20194;50.950;5.346;2022-07-29T03:59:01;19.60;1.00
33903;DHT22;20194;50.950;5.346;2022-07-29T04:01:29;19.60;1.00
33903;DHT22;20194;50.950;5.346;2022-07-29T04:03:55;19.60;1.00
33903;DHT22;20194;50.950;5.346;2022-07-29T04:06:21;19.60;1.00
33903;DHT22;20194;50.950;5.346;2022-07-29T04:08:47;19.60;1.00
33903;DHT22;20194;50.950;5.346;2022-07-29T04:11:13;19.30;1.00
33903;DHT22;20194;50.950;5.346;2022-07-29T04:13:39;18.70;1.00
33903;DHT22;20194;50.950;5.346;2022-07-29T04:16:05;18.20;1.00
33903;DHT22;20194;50.950;5.346;2022-07-29T04:18:30;18.00;1.00
33903;DHT22;20194;50.950;5.346;2022-07-29T04:20:56;18.10;1.00
33903;DHT22;20194;50.950;5.346;2022-07-29T04:23:24;18.50;1.00
33903;DHT22;20194;50.950;5.346;2022-07-29T04:25:50;18.80;1.00
33903;DHT22;20194;50.950;5.346;2022-07-29T04:28:15;19.00;1.00
33903;DHT22;20194;50.950;5.346;2022-07-29T04:30:41;19.20;1.00
33903;DHT22;20194;50.950;5.346;2022-07-29T04:33:07;19.30;1.00
33903;DHT22;20194;50.950;5.346;2022-07-29T04:35:37;19.30;1.00
33903;DHT22;20194;50.950;5.346;2022-07-29T04:38:04;19.40;1.00
33903;DHT22;20194;50.950;5.346;2022-07-29T04:40:30;19.40;1.00
33903;DHT22;20194;50.950;5.346;2022-07-29T04:42:59;19.30;1.00
33903;DHT22;20194;50.950;5.346;2022-07-29T04:45:26;19.10;1.00
33903;DHT22;20194;50.950;5.346;2022-07-29T04:47:52;19.00;1.00
33903;DHT22;20194;50.950;5.346;2022-07-29T04:50:17;19.00;1.00
33903;DHT22;20194;50.950;5.346;2022-07-29T04:52:43;18.90;1.00
33903;DHT22;20194;50.950;5.346;2022-07-29T04:55:10;19.00;1.00
33903;DHT22;20194;50.950;5.346;2022-07-29T04:57:36;18.80;1.00
33903;DHT22;20194;50.950;5.346;2022-07-29T05:00:02;18.60;1.00
33903;DHT22;20194;50.950;5.346;2022-07-29T05:02:29;18.30;1.00
33903;DHT22;20194;50.950;5.346;2022-07-29T05:04:54;18.40;1.00
33903;DHT22;20194;50.950;5.346;2022-07-29T05:07:20;18.50;1.00
33903;DHT22;20194;50.950;5.346;2022-07-29T05:09:45;18.80;1.00
33903;DHT22;20194;50.950;5.346;2022-07-29T05:12:11;19.00;1.00
33903;DHT22;20194;50.950;5.346;2022-07-29T05:14:37;19.20;1.00
33903;DHT22;20194;50.950;5.346;2022-07-29T05:17:03;19.20;1.00
33903;DHT22;20194;50.950;5.346;2022-07-29T05:19:28;19.20;1.00
33903;DHT22;20194;50.950;5.346;2022-07-29T05:21:55;19.30;1.00
33903;DHT22;20194;50.950;5.346;2022-07-29T05:24:20;19.30;1.00
33903;DHT22;20194;50.950;5.346;2022-07-29T05:26:46;19.30;1.00
33903;DHT22;20194;50.950;5.346;2022-07-29T05:29:12;19.10;1.00
33903;DHT22;20194;50.950;5.346;2022-07-29T05:31:37;19.00;1.00
33903;DHT22;20194;50.950;5.346;2022-07-29T05:34:03;19.00;1.00
33903;DHT22;20194;50.950;5.346;2022-07-29T05:36:29;19.10;1.00
33903;DHT22;20194;50.950;5.346;2022-07-29T05:38:54;19.10;1.00
33903;DHT22;20194;50.950;5.346;2022-07-29T05:41:20;18.40;1.00
33903;DHT22;20194;50.950;5.346;2022-07-29T05:43:46;18.40;1.00
33903;DHT22;20194;50.950;5.346;2022-07-29T05:46:12;18.60;1.00
33903;DHT22;20194;50.950;5.346;2022-07-29T05:48:39;19.10;1.00
33903;DHT22;20194;50.950;5.346;2022-07-29T05:51:05;19.60;1.00
33903;DHT22;20194;50.950;5.346;2022-07-29T05:53:31;20.00;1.00
33903;DHT22;20194;50.950;5.346;2022-07-29T05:55:56;20.20;1.00
33903;DHT22;20194;50.950;5.346;2022-07-29T05:58:22;20.40;1.00
33903;DHT22;20194;50.950;5.346;2022-07-29T06:00:49;20.70;1.00
33903;DHT22;20194;50.950;5.346;2022-07-29T06:03:14;20.90;1.00
33903;DHT22;20194;50.950;5.346;2022-07-29T06:05:41;21.10;1.00
33903;DHT22;20194;50.950;5.346;2022-07-29T06:08:06;21.00;1.00
33903;DHT22;20194;50.950;5.346;2022-07-29T06:10:34;21.10;1.00
33903;DHT22;20194;50.950;5.346;2022-07-29T06:12:59;21.20;1.00
33903;DHT22;20194;50.950;5.346;2022-07-29T06:15:26;21.20;1.00
33903;DHT22;20194;50.950;5.346;2022-07-29T06:17:52;21.20;1.00
33903;DHT22;20194;50.950;5.346;2022-07-29T06:20:18;21.30;1.00
33903;DHT22;20194;50.950;5.346;2022-07-29T06:22:44;21.30;1.00
33903;DHT22;20194;50.950;5.346;2022-07-29T06:25:09;21.20;1.00
33903;DHT22;20194;50.950;5.346;2022-07-29T06:27:35;21.30;1.00
33903;DHT22;20194;50.950;5.346;2022-07-29T06:30:01;21.30;1.00
33903;DHT22;20194;50.950;5.346;2022-07-29T06:32:27;21.50;1.00
33903;DHT22;20194;50.950;5.346;2022-07-29T06:34:53;21.70;1.00
33903;DHT22;20194;50.950;5.346;2022-07-29T06:37:19;21.80;1.00
33903;DHT22;20194;50.950;5.346;2022-07-29T06:39:44;22.00;1.00
33903;DHT22;20194;50.950;5.346;2022-07-29T06:42:11;22.20;1.00
33903;DHT22;20194;50.950;5.346;2022-07-29T06:44:36;22.40;1.00
33903;DHT22;20194;50.950;5.346;2022-07-29T06:47:03;22.60;1.00
33903;DHT22;20194;50.950;5.346;2022-07-29T06:49:28;22.60;1.00
33903;DHT22;20194;50.950;5.346;2022-07-29T06:51:54;22.80;1.00
33903;DHT22;20194;50.950;5.346;2022-07-29T06:54:21;22.80;1.00
33903;DHT22;20194;50.950;5.346;2022-07-29T06:56:47;23.10;1.00
33903;DHT22;20194;50.950;5.346;2022-07-29T06:59:12;23.10;1.00
33903;DHT22;20194;50.950;5.346;2022-07-29T07:01:41;23.00;1.00
33903;DHT22;20194;50.950;5.346;2022-07-29T07:04:07;23.00;1.00
33903;DHT22;20194;50.950;5.346;2022-07-29T07:06:34;23.30;1.00
33903;DHT22;20194;50.950;5.346;2022-07-29T07:09:00;23.40;1.00
33903;DHT22;20194;50.950;5.346;2022-07-29T07:11:26;23.60;1.00
33903;DHT22;20194;50.950;5.346;2022-07-29T07:13:52;23.60;1.00
33903;DHT22;20194;50.950;5.346;2022-07-29T07:16:17;23.90;1.00
33903;DHT22;20194;50.950;5.346;2022-07-29T07:18:43;23.80;1.00
33903;DHT22;20194;50.950;5.346;2022-07-29T07:21:11;23.70;1.00
33903;DHT22;20194;50.950;5.346;2022-07-29T07:23:37;23.60;1.00
33903;DHT22;20194;50.950;5.346;2022-07-29T07:26:03;23.90;1.00
33903;DHT22;20194;50.950;5.346;2022-07-29T07:28:29;24.10;99.90
33903;DHT22;20194;50.950;5.346;2022-07-29T07:30:55;24.30;99.90
33903;DHT22;20194;50.950;5.346;2022-07-29T07:33:21;24.30;99.90
33903;DHT22;20194;50.950;5.346;2022-07-29T07:35:47;24.20;99.90
33903;DHT22;20194;50.950;5.346;2022-07-29T07:38:13;24.30;99.90
33903;DHT22;20194;50.950;5.346;2022-07-29T07:40:38;24.40;99.90
33903;DHT22;20194;50.950;5.346;2022-07-29T07:43:04;24.80;99.90
33903;DHT22;20194;50.950;5.346;2022-07-29T07:45:30;25.10;99.90
33903;DHT22;20194;50.950;5.346;2022-07-29T07:47:58;25.10;99.90
33903;DHT22;20194;50.950;5.346;2022-07-29T07:50:24;24.30;99.90
33903;DHT22;20194;50.950;5.346;2022-07-29T07:52:54;24.50;99.90
33903;DHT22;20194;50.950;5.346;2022-07-29T07:55:20;24.50;99.90
33903;DHT22;20194;50.950;5.346;2022-07-29T07:57:46;24.90;99.90
33903;DHT22;20194;50.950;5.346;2022-07-29T08:00:13;25.10;99.90
33903;DHT22;20194;50.950;5.346;2022-07-29T08:02:40;25.60;97.60
33903;DHT22;20194;50.950;5.346;2022-07-29T08:05:08;24.50;78.00
33903;DHT22;20194;50.950;5.346;2022-07-29T08:07:34;24.80;99.90
33903;DHT22;20194;50.950;5.346;2022-07-29T08:10:01;25.40;99.90
33903;DHT22;20194;50.950;5.346;2022-07-29T08:12:26;25.70;1.00
33903;DHT22;20194;50.950;5.346;2022-07-29T08:14:53;25.80;1.00
33903;DHT22;20194;50.950;5.346;2022-07-29T08:17:19;25.70;1.00
33903;DHT22;20194;50.950;5.346;2022-07-29T08:19:45;26.00;1.00
33903;DHT22;20194;50.950;5.346;2022-07-29T08:22:11;25.30;1.00
33903;DHT22;20194;50.950;5.346;2022-07-29T08:24:36;25.10;1.00
33903;DHT22;20194;50.950;5.346;2022-07-29T08:27:09;24.90;1.00
33903;DHT22;20194;50.950;5.346;2022-07-29T08:29:36;25.10;1.00
33903;DHT22;20194;50.950;5.346;2022-07-29T08:32:02;25.60;1.00
33903;DHT22;20194;50.950;5.346;2022-07-29T08:34:28;25.70;1.00
33903;DHT22;20194;50.950;5.346;2022-07-29T08:36:54;25.30;1.00
33903;DHT22;20194;50.950;5.346;2022-07-29T08:39:21;25.60;1.00
33903;DHT22;20194;50.950;5.346;2022-07-29T08:41:47;26.00;1.00
33903;DHT22;20194;50.950;5.346;2022-07-29T08:44:15;26.00;1.00
33903;DHT22;20194;50.950;5.346;2022-07-29T08:46:42;26.30;1.00
33903;DHT22;20194;50.950;5.346;2022-07-29T08:49:08;26.40;1.00
33903;DHT22;20194;50.950;5.346;2022-07-29T08:51:34;26.30;1.00
33903;DHT22;20194;50.950;5.346;2022-07-29T08:54:02;26.30;1.00
33903;DHT22;20194;50.950;5.346;2022-07-29T08:56:30;26.50;99.90
33903;DHT22;20194;50.950;5.346;2022-07-29T08:58:58;26.50;1.00
33903;DHT22;20194;50.950;5.346;2022-07-29T09:01:27;26.50;1.00
33903;DHT22;20194;50.950;5.346;2022-07-29T09:03:56;26.30;1.00
33903;DHT22;20194;50.950;5.346;2022-07-29T09:06:22;26.50;1.00
33903;DHT22;20194;50.950;5.346;2022-07-29T09:08:51;26.60;1.00
33903;DHT22;20194;50.950;5.346;2022-07-29T09:11:17;26.50;1.00
33903;DHT22;20194;50.950;5.346;2022-07-29T09:13:43;25.50;1.00
33903;DHT22;20194;50.950;5.346;2022-07-29T09:16:08;25.70;52.40
33903;DHT22;20194;50.950;5.346;2022-07-29T09:18:41;26.10;31.70
33903;DHT22;20194;50.950;5.346;2022-07-29T09:21:09;26.10;1.00
33903;DHT22;20194;50.950;5.346;2022-07-29T09:24:12;26.20;1.00
33903;DHT22;20194;50.950;5.346;2022-07-29T09:26:45;25.70;3.20
33903;DHT22;20194;50.950;5.346;2022-07-29T09:29:18;25.80;91.50
33903;DHT22;20194;50.950;5.346;2022-07-29T09:31:46;25.70;94.60
33903;DHT22;20194;50.950;5.346;2022-07-29T09:34:21;25.60;99.90
33903;DHT22;20194;50.950;5.346;2022-07-29T09:36:48;26.00;98.80
33903;DHT22;20194;50.950;5.346;2022-07-29T09:39:25;26.00;1.00
33903;DHT22;20194;50.950;5.346;2022-07-29T09:41:54;26.00;72.10
33903;DHT22;20194;50.950;5.346;2022-07-29T09:44:21;26.20;1.00
33903;DHT22;20194;50.950;5.346;2022-07-29T09:46:59;26.50;1.00
33903;DHT22;20194;50.950;5.346;2022-07-29T09:49:31;26.30;99.90
33903;DHT22;20194;50.950;5.346;2022-07-29T09:52:08;26.20;1.00
33903;DHT22;20194;50.950;5.346;2022-07-29T09:54:34;26.40;99.90
33903;DHT22;20194;50.950;5.346;2022-07-29T09:57:05;26.30;99.90
33903;DHT22;20194;50.950;5.346;2022-07-29T09:59:31;26.10;46.50
33903;DHT22;20194;50.950;5.346;2022-07-29T10:01:58;26.10;99.90
33903;DHT22;20194;50.950;5.346;2022-07-29T10:04:36;26.40;99.90
33903;DHT22;20194;50.950;5.346;2022-07-29T10:07:02;26.70;35.50
33903;DHT22;20194;50.950;5.346;2022-07-29T10:09:30;26.60;1.00
33903;DHT22;20194;50.950;5.346;2022-07-29T10:12:07;26.60;1.00
33903;DHT22;20194;50.950;5.346;2022-07-29T10:14:35;27.10;99.90
33903;DHT22;20194;50.950;5.346;2022-07-29T10:17:01;27.00;99.90
33903;DHT22;20194;50.950;5.346;2022-07-29T10:19:31;27.10;1.00
33903;DHT22;20194;50.950;5.346;2022-07-29T10:21:58;27.40;99.90
33903;DHT22;20194;50.950;5.346;2022-07-29T10:24:29;27.40;99.90
33903;DHT22;20194;50.950;5.346;2022-07-29T10:26:56;27.20;83.80
33903;DHT22;20194;50.950;5.346;2022-07-29T10:29:22;27.40;1.00
33903;DHT22;20194;50.950;5.346;2022-07-29T10:35:06;27.80;1.00
33903;DHT22;20194;50.950;5.346;2022-07-29T10:43:25;28.70;1.00
33903;DHT22;20194;50.950;5.346;2022-07-29T10:45:56;28.60;99.90
33903;DHT22;20194;50.950;5.346;2022-07-29T10:48:22;28.30;32.00
33903;DHT22;20194;50.950;5.346;2022-07-29T10:51:02;28.30;1.00
33903;DHT22;20194;50.950;5.346;2022-07-29T10:54:02;27.70;95.30
33903;DHT22;20194;50.950;5.346;2022-07-29T10:56:32;27.90;23.60
33903;DHT22;20194;50.950;5.346;2022-07-29T10:59:36;28.10;16.30
33903;DHT22;20194;50.950;5.346;2022-07-29T11:02:02;28.10;1.00
33903;DHT22;20194;50.950;5.346;2022-07-29T11:07:17;28.20;1.00
33903;DHT22;20194;50.950;5.346;2022-07-29T11:09:42;28.50;1.00
33903;DHT22;20194;50.950;5.346;2022-07-29T11:12:45;28.70;99.90
33903;DHT22;20194;50.950;5.346;2022-07-29T11:15:19;29.00;99.90
33903;DHT22;20194;50.950;5.346;2022-07-29T11:20:41;29.00;99.90
33903;DHT22;20194;50.950;5.346;2022-07-29T11:26:19;29.50;1.00
33903;DHT22;20194;50.950;5.346;2022-07-29T11:29:04;29.60;1.00
33903;DHT22;20194;50.950;5.346;2022-07-29T11:31:45;29.70;1.00
33903;DHT22;20194;50.950;5.346;2022-07-29T11:34:31;29.80;1.00
33903;DHT22;20194;50.950;5.346;2022-07-29T11:39:37;29.10;1.00
33903;DHT22;20194;50.950;5.346;2022-07-29T11:47:47;29.10;1.00
33903;DHT22;20194;50.950;5.346;2022-07-29T11:50:16;29.50;1.00
33903;DHT22;20194;50.950;5.346;2022-07-29T11:52:45;29.80;1.00
33903;DHT22;20194;50.950;5.346;2022-07-29T11:55:16;29.50;99.90
33903;DHT22;20194;50.950;5.346;2022-07-29T11:57:47;29.00;1.00
33903;DHT22;20194;50.950;5.346;2022-07-29T12:02:59;28.80;1.40
33903;DHT22;20194;50.950;5.346;2022-07-29T12:05:37;28.90;99.90
33903;DHT22;20194;50.950;5.346;2022-07-29T12:08:11;28.70;99.90
33903;DHT22;20194;50.950;5.346;2022-07-29T12:10:38;28.70;99.90
33903;DHT22;20194;50.950;5.346;2022-07-29T12:13:04;29.10;99.90
33903;DHT22;20194;50.950;5.346;2022-07-29T12:15:31;29.30;99.90
33903;DHT22;20194;50.950;5.346;2022-07-29T12:17:57;29.30;1.00
33903;DHT22;20194;50.950;5.346;2022-07-29T12:20:25;28.30;86.00
33903;DHT22;20194;50.950;5.346;2022-07-29T12:22:51;28.50;99.90
33903;DHT22;20194;50.950;5.346;2022-07-29T12:25:20;28.90;99.90
33903;DHT22;20194;50.950;5.346;2022-07-29T12:27:46;29.30;1.00
33903;DHT22;20194;50.950;5.346;2022-07-29T12:30:14;28.40;1.00
33903;DHT22;20194;50.950;5.346;2022-07-29T12:32:46;28.40;99.90
33903;DHT22;20194;50.950;5.346;2022-07-29T12:35:14;29.00;99.90
33903;DHT22;20194;50.950;5.346;2022-07-29T12:37:42;29.40;1.00
33903;DHT22;20194;50.950;5.346;2022-07-29T12:40:11;29.40;1.00
33903;DHT22;20194;50.950;5.346;2022-07-29T12:42:38;29.20;1.00
33903;DHT22;20194;50.950;5.346;2022-07-29T12:45:04;29.30;1.00
33903;DHT22;20194;50.950;5.346;2022-07-29T12:47:31;29.40;1.00
33903;DHT22;20194;50.950;5.346;2022-07-29T12:50:12;29.60;1.00
33903;DHT22;20194;50.950;5.346;2022-07-29T12:52:40;29.60;1.00
33903;DHT22;20194;50.950;5.346;2022-07-29T12:55:07;29.60;99.90
33903;DHT22;20194;50.950;5.346;2022-07-29T12:57:47;29.50;99.90
33903;DHT22;20194;50.950;5.346;2022-07-29T13:00:14;29.50;99.90
33903;DHT22;20194;50.950;5.346;2022-07-29T13:02:42;29.40;99.90
33903;DHT22;20194;50.950;5.346;2022-07-29T13:05:09;29.40;99.90
33903;DHT22;20194;50.950;5.346;2022-07-29T13:07:38;29.00;99.90
33903;DHT22;20194;50.950;5.346;2022-07-29T13:10:15;28.80;99.90
33903;DHT22;20194;50.950;5.346;2022-07-29T13:13:05;28.70;99.90
33903;DHT22;20194;50.950;5.346;2022-07-29T13:15:32;28.50;99.90
33903;DHT22;20194;50.950;5.346;2022-07-29T13:17:58;28.30;1.00
33903;DHT22;20194;50.950;5.346;2022-07-29T13:20:25;28.50;1.00
33903;DHT22;20194;50.950;5.346;2022-07-29T13:22:52;28.60;1.00
33903;DHT22;20194;50.950;5.346;2022-07-29T13:25:29;28.40;1.00
33903;DHT22;20194;50.950;5.346;2022-07-29T13:27:56;28.60;1.00
33903;DHT22;20194;50.950;5.346;2022-07-29T13:30:22;28.70;99.90
33903;DHT22;20194;50.950;5.346;2022-07-29T13:32:49;28.80;1.00
33903;DHT22;20194;50.950;5.346;2022-07-29T13:35:15;28.70;99.90
33903;DHT22;20194;50.950;5.346;2022-07-29T13:37:41;28.80;99.90
33903;DHT22;20194;50.950;5.346;2022-07-29T13:40:08;28.70;99.90
33903;DHT22;20194;50.950;5.346;2022-07-29T13:42:35;28.60;99.90
33903;DHT22;20194;50.950;5.346;2022-07-29T13:45:01;28.80;99.90
33903;DHT22;20194;50.950;5.346;2022-07-29T13:47:27;28.90;99.90
33903;DHT22;20194;50.950;5.346;2022-07-29T13:49:54;29.00;99.90
33903;DHT22;20194;50.950;5.346;2022-07-29T13:52:20;29.10;99.90
33903;DHT22;20194;50.950;5.346;2022-07-29T13:54:46;29.10;99.90
33903;DHT22;20194;50.950;5.346;2022-07-29T13:57:12;29.10;99.90
33903;DHT22;20194;50.950;5.346;2022-07-29T13:59:40;28.60;99.90
33903;DHT22;20194;50.950;5.346;2022-07-29T14:02:06;28.80;99.90
33903;DHT22;20194;50.950;5.346;2022-07-29T14:04:32;29.10;99.90
33903;DHT22;20194;50.950;5.346;2022-07-29T14:06:58;29.00;99.90
33903;DHT22;20194;50.950;5.346;2022-07-29T14:09:24;28.90;99.90
33903;DHT22;20194;50.950;5.346;2022-07-29T14:11:50;29.10;99.90
33903;DHT22;20194;50.950;5.346;2022-07-29T14:14:18;29.10;99.90
33903;DHT22;20194;50.950;5.346;2022-07-29T14:16:44;29.20;99.90
33903;DHT22;20194;50.950;5.346;2022-07-29T14:19:10;29.00;99.90
33903;DHT22;20194;50.950;5.346;2022-07-29T14:21:37;28.80;99.90
33903;DHT22;20194;50.950;5.346;2022-07-29T14:24:03;28.60;99.90
33903;DHT22;20194;50.950;5.346;2022-07-29T14:26:29;28.50;99.90
33903;DHT22;20194;50.950;5.346;2022-07-29T14:28:55;28.50;99.90
33903;DHT22;20194;50.950;5.346;2022-07-29T14:31:20;28.40;99.90
33903;DHT22;20194;50.950;5.346;2022-07-29T14:33:46;28.50;99.90
33903;DHT22;20194;50.950;5.346;2022-07-29T14:36:12;28.40;99.90
33903;DHT22;20194;50.950;5.346;2022-07-29T14:38:38;28.40;99.90
33903;DHT22;20194;50.950;5.346;2022-07-29T14:41:04;28.10;99.90
33903;DHT22;20194;50.950;5.346;2022-07-29T14:43:30;28.00;99.90
33903;DHT22;20194;50.950;5.346;2022-07-29T14:45:57;28.00;99.90
33903;DHT22;20194;50.950;5.346;2022-07-29T14:48:22;27.90;99.90
33903;DHT22;20194;50.950;5.346;2022-07-29T14:50:48;27.90;99.90
33903;DHT22;20194;50.950;5.346;2022-07-29T14:53:14;27.70;99.90
33903;DHT22;20194;50.950;5.346;2022-07-29T14:55:41;27.70;99.90
33903;DHT22;20194;50.950;5.346;2022-07-29T14:58:07;27.90;99.90
33903;DHT22;20194;50.950;5.346;2022-07-29T15:00:33;28.00;99.90
33903;DHT22;20194;50.950;5.346;2022-07-29T15:03:02;27.90;99.90
33903;DHT22;20194;50.950;5.346;2022-07-29T15:05:29;27.60;99.90
33903;DHT22;20194;50.950;5.346;2022-07-29T15:07:55;27.60;99.90
33903;DHT22;20194;50.950;5.346;2022-07-29T15:10:21;27.70;99.90
33903;DHT22;20194;50.950;5.346;2022-07-29T15:12:46;27.90;99.90
33903;DHT22;20194;50.950;5.346;2022-07-29T15:15:12;27.80;99.90
33903;DHT22;20194;50.950;5.346;2022-07-29T15:17:38;27.90;99.90
33903;DHT22;20194;50.950;5.346;2022-07-29T15:20:04;27.80;99.90
33903;DHT22;20194;50.950;5.346;2022-07-29T15:22:30;27.90;99.90
33903;DHT22;20194;50.950;5.346;2022-07-29T15:24:56;27.90;99.90
33903;DHT22;20194;50.950;5.346;2022-07-29T15:27:22;28.00;99.90
33903;DHT22;20194;50.950;5.346;2022-07-29T15:29:47;28.10;99.90
33903;DHT22;20194;50.950;5.346;2022-07-29T15:32:13;28.40;99.90
33903;DHT22;20194;50.950;5.346;2022-07-29T15:34:39;28.50;99.90
33903;DHT22;20194;50.950;5.346;2022-07-29T15:37:05;28.40;94.20
33903;DHT22;20194;50.950;5.346;2022-07-29T15:39:31;27.70;27.20
33903;DHT22;20194;50.950;5.346;2022-07-29T15:41:57;27.60;45.70
33903;DHT22;20194;50.950;5.346;2022-07-29T15:44:25;27.30;37.40
33903;DHT22;20194;50.950;5.346;2022-07-29T15:46:50;27.30;72.70
33903;DHT22;20194;50.950;5.346;2022-07-29T15:49:39;27.30;77.80
33903;DHT22;20194;50.950;5.346;2022-07-29T15:52:07;27.20;45.60
33903;DHT22;20194;50.950;5.346;2022-07-29T15:54:38;27.30;99.90
33903;DHT22;20194;50.950;5.346;2022-07-29T15:57:06;27.30;62.60
33903;DHT22;20194;50.950;5.346;2022-07-29T15:59:32;27.40;72.80
33903;DHT22;20194;50.950;5.346;2022-07-29T16:01:58;27.40;87.30
33903;DHT22;20194;50.950;5.346;2022-07-29T16:04:25;27.50;98.50
33903;DHT22;20194;50.950;5.346;2022-07-29T16:06:51;27.50;90.10
33903;DHT22;20194;50.950;5.346;2022-07-29T16:09:17;27.30;69.90
33903;DHT22;20194;50.950;5.346;2022-07-29T16:11:43;27.50;99.20
33903;DHT22;20194;50.950;5.346;2022-07-29T16:14:11;27.50;99.90
33903;DHT22;20194;50.950;5.346;2022-07-29T16:16:37;27.60;99.90
33903;DHT22;20194;50.950;5.346;2022-07-29T16:19:04;27.60;92.60
33903;DHT22;20194;50.950;5.346;2022-07-29T16:21:30;27.70;99.90
33903;DHT22;20194;50.950;5.346;2022-07-29T16:23:59;27.60;84.30
33903;DHT22;20194;50.950;5.346;2022-07-29T16:26:26;27.60;70.30
33903;DHT22;20194;50.950;5.346;2022-07-29T16:28:51;27.70;76.20
33903;DHT22;20194;50.950;5.346;2022-07-29T16:31:17;27.80;69.00